createdAt,value
2023-03-06T00:02:40.659Z,83478.09
2023-03-06T00:05:43.494Z,83475.75
2023-03-06T00:08:45.923Z,83470.22
2023-03-06T00:11:48.649Z,83470.19
2023-03-06T00:14:51.065Z,83468.63
2023-03-06T00:17:54.536Z,83468.63
2023-03-06T00:20:56.968Z,83460.75
2023-03-06T00:23:59.653Z,83456.00
2023-03-06T00:27:02.104Z,83462.31
2023-03-06T00:30:05.587Z,83460.72
2023-03-06T00:33:08.206Z,83461.56
2023-03-06T00:36:10.943Z,83465.50
2023-03-06T00:39:13.258Z,83456.00
2023-03-06T00:42:19.961Z,83454.44
2023-03-06T00:45:22.455Z,83456.00
2023-03-06T00:48:25.193Z,83451.28
2023-03-06T00:51:27.660Z,83449.69
2023-03-06T00:54:30.785Z,83448.91
2023-03-06T00:57:33.152Z,83449.72
2023-03-06T01:00:35.898Z,83451.28
2023-03-06T01:03:38.404Z,83449.72
2023-03-06T01:06:41.204Z,83446.56
2023-03-06T01:09:43.654Z,83444.94
2023-03-06T01:12:46.442Z,83437.84
2023-03-06T01:15:48.870Z,83438.66
2023-03-06T01:18:51.681Z,83435.50
2023-03-06T01:21:54.157Z,83436.28
2023-03-06T01:24:56.874Z,83429.16
2023-03-06T01:27:59.463Z,83433.91
2023-03-06T01:31:02.170Z,83429.19
2023-03-06T01:34:04.641Z,83429.16
2023-03-06T01:37:07.370Z,83432.31
2023-03-06T01:40:11.550Z,83427.59
2023-03-06T01:43:26.785Z,83426.00
2023-03-06T01:46:30.251Z,83426.78
2023-03-06T01:49:40.165Z,83419.69
2023-03-06T01:52:53.170Z,83418.09
2023-03-06T01:55:57.276Z,83424.44
2023-03-06T01:59:00.260Z,83422.84
2023-03-06T02:02:06.031Z,83423.63
2023-03-06T02:05:09.286Z,83427.59
2023-03-06T02:08:16.198Z,83426.00
2023-03-06T02:11:24.686Z,83427.62
2023-03-06T02:14:27.611Z,83425.22
2023-03-06T02:17:34.939Z,83427.62
2023-03-06T02:20:43.763Z,83424.44
2023-03-06T02:23:59.786Z,83422.84
2023-03-06T02:27:04.411Z,83418.13
2023-03-06T02:30:08.599Z,83419.72
2023-03-06T02:33:15.443Z,83412.59
2023-03-06T02:36:18.179Z,83419.72
2023-03-06T02:39:25.079Z,83410.22
2023-03-06T02:42:29.524Z,83413.41
2023-03-06T02:45:45.551Z,83416.53
2023-03-06T02:48:48.335Z,83418.09
2023-03-06T02:51:50.955Z,83418.09
2023-03-06T02:54:53.606Z,83421.25
2023-03-06T02:57:56.011Z,83416.53
2023-03-06T03:00:59.241Z,83415.78
2023-03-06T03:04:01.942Z,83414.16
2023-03-06T03:07:05.353Z,83413.38
2023-03-06T03:10:08.746Z,83414.16
2023-03-06T03:13:11.932Z,83414.97
2023-03-06T03:16:15.778Z,83420.50
2023-03-06T03:19:18.566Z,83414.16
2023-03-06T03:22:21.232Z,83416.53
2023-03-06T03:25:25.952Z,83411.00
2023-03-06T03:28:28.910Z,83418.16
2023-03-06T03:31:32.738Z,83415.00
2023-03-06T03:34:35.520Z,83410.22
2023-03-06T03:37:38.623Z,83407.06
2023-03-06T03:40:41.098Z,83408.63
2023-03-06T03:43:44.604Z,83407.09
2023-03-06T03:46:47.069Z,83409.44
2023-03-06T03:49:50.757Z,83403.91
2023-03-06T03:52:54.485Z,83399.19
2023-03-06T03:55:57.338Z,83395.25
2023-03-06T03:59:00.315Z,83396.00
2023-03-06T04:02:04.988Z,83395.22
2023-03-06T04:05:10.492Z,83399.16
2023-03-06T04:08:13.447Z,83396.00
2023-03-06T04:11:17.032Z,83389.72
2023-03-06T04:14:19.570Z,83383.38
2023-03-06T04:17:22.324Z,83389.69
2023-03-06T04:20:26.132Z,83386.53
2023-03-06T04:23:28.860Z,83394.41
2023-03-06T04:26:31.468Z,83392.84
2023-03-06T04:29:34.653Z,83404.69
2023-03-06T04:32:37.243Z,83408.66
2023-03-06T04:35:40.420Z,83400.75
2023-03-06T04:38:43.672Z,83397.59
2023-03-06T04:41:46.624Z,83400.78
2023-03-06T04:44:49.313Z,83404.75
2023-03-06T04:47:52.128Z,83400.78
2023-03-06T04:50:54.516Z,83403.91
2023-03-06T04:53:57.235Z,83399.16
2023-03-06T04:56:59.771Z,83403.91
2023-03-06T05:00:08.995Z,83406.31
2023-03-06T05:03:12.537Z,83400.78
2023-03-06T05:06:15.590Z,83405.50
2023-03-06T05:09:18.129Z,83397.59
2023-03-06T05:12:21.028Z,83394.44
2023-03-06T05:15:23.465Z,83403.91
2023-03-06T05:18:26.089Z,83403.91
2023-03-06T05:21:28.531Z,83394.47
2023-03-06T05:24:31.251Z,83389.69
2023-03-06T05:27:33.929Z,83398.38
2023-03-06T05:30:36.704Z,83387.34
2023-03-06T05:33:39.066Z,83391.28
2023-03-06T05:36:42.623Z,83389.72
2023-03-06T05:39:45.031Z,83394.44
2023-03-06T05:42:47.763Z,83392.84
2023-03-06T05:45:53.304Z,83390.50
2023-03-06T05:48:57.580Z,83396.00
2023-03-06T05:52:00.358Z,83402.34
2023-03-06T05:55:03.257Z,83402.31
2023-03-06T05:58:05.737Z,83396.00
2023-03-06T06:01:13.562Z,83401.53
2023-03-06T06:04:16.272Z,83405.47
2023-03-06T06:07:18.586Z,83414.97
2023-03-06T06:10:21.484Z,83413.38
2023-03-06T06:13:23.904Z,83408.66
2023-03-06T06:16:26.593Z,83419.69
2023-03-06T06:19:30.291Z,83421.25
2023-03-06T06:22:36.029Z,83427.59
2023-03-06T06:25:38.686Z,83434.69
2023-03-06T06:28:41.408Z,83445.75
2023-03-06T06:31:44.265Z,83440.22
2023-03-06T06:34:47.052Z,83435.50
2023-03-06T06:37:49.483Z,83437.06
2023-03-06T06:41:26.897Z,83457.59
2023-03-06T06:44:16.238Z,83459.16
2023-03-06T06:47:22.879Z,83444.16
2023-03-06T06:50:27.393Z,83440.22
2023-03-06T06:53:30.486Z,83433.09
2023-03-06T06:56:32.952Z,83427.59
2023-03-06T06:59:36.074Z,83434.69
2023-03-06T07:02:38.434Z,83440.22
2023-03-06T07:05:41.298Z,83429.19
2023-03-06T07:08:43.864Z,83429.16
2023-03-06T07:11:46.550Z,83421.25
2023-03-06T07:14:48.896Z,83422.84
2023-03-06T07:17:51.786Z,83421.25
2023-03-06T07:20:54.929Z,83424.44
2023-03-06T07:23:57.964Z,83424.44
2023-03-06T07:27:00.586Z,83413.38
2023-03-06T07:30:03.686Z,83419.69
2023-03-06T07:33:06.115Z,83422.06
2023-03-06T07:36:12.727Z,83413.38
2023-03-06T07:39:15.323Z,83408.63
2023-03-06T07:42:18.094Z,83407.84
2023-03-06T07:45:22.525Z,83396.00
2023-03-06T07:48:25.627Z,83395.22
2023-03-06T07:51:28.346Z,83388.09
2023-03-06T07:54:32.642Z,83391.25
2023-03-06T07:57:35.171Z,83400.72
2023-03-06T08:00:38.395Z,83401.53
2023-03-06T08:03:41.345Z,83400.72
2023-03-06T08:06:43.800Z,83429.16
2023-03-06T08:09:46.675Z,83429.97
2023-03-06T08:12:49.030Z,83422.84
2023-03-06T08:15:52.019Z,83426.03
2023-03-06T08:18:54.596Z,83421.25
2023-03-06T08:21:57.506Z,83429.16
2023-03-06T08:24:59.866Z,83414.94
2023-03-06T08:28:02.600Z,83409.41
2023-03-06T08:31:31.433Z,83400.72
2023-03-06T08:34:39.908Z,83394.41
2023-03-06T08:37:42.570Z,83377.84
2023-03-06T08:40:45.561Z,83389.66
2023-03-06T08:43:48.499Z,83421.25
2023-03-06T08:46:51.222Z,83395.25
2023-03-06T08:49:53.830Z,83396.00
2023-03-06T08:52:56.471Z,83394.41
2023-03-06T08:55:59.098Z,83374.66
2023-03-06T08:59:03.924Z,83362.81
2023-03-06T09:02:07.717Z,83347.81
2023-03-06T09:05:11.012Z,83355.69
2023-03-06T09:08:13.531Z,83346.22
2023-03-06T09:11:16.269Z,83335.97
2023-03-06T09:14:18.686Z,83325.69
2023-03-06T09:17:21.627Z,83317.00
2023-03-06T09:20:25.630Z,83271.97
2023-03-06T09:23:28.295Z,83260.88
2023-03-06T09:26:44.980Z,83261.69
2023-03-06T09:29:48.830Z,83280.66
2023-03-06T09:32:51.470Z,83275.91
2023-03-06T09:35:58.643Z,83258.53
2023-03-06T09:39:01.153Z,83216.66
2023-03-06T09:42:07.081Z,83169.97
2023-03-06T09:45:13.132Z,83179.44
2023-03-06T09:48:17.790Z,83082.91
2023-03-06T09:51:33.147Z,83100.34
2023-03-06T09:54:46.305Z,83094.78
2023-03-06T09:58:07.496Z,83080.50
2023-03-06T10:01:21.932Z,83100.38
2023-03-06T10:04:41.391Z,83084.53
2023-03-06T10:07:56.105Z,83116.94
2023-03-06T10:11:05.736Z,83139.16
2023-03-06T10:14:18.688Z,83147.81
2023-03-06T10:17:26.213Z,83124.06
2023-03-06T10:20:52.094Z,83124.13
2023-03-06T10:24:04.197Z,83132.00
2023-03-06T10:27:23.519Z,83158.13
2023-03-06T10:30:38.647Z,83181.06
2023-03-06T10:34:00.328Z,83193.72
2023-03-06T10:37:17.116Z,83176.34
2023-03-06T10:40:23.048Z,83179.47
2023-03-06T10:43:25.850Z,83184.25
2023-03-06T10:46:39.923Z,83174.75
2023-03-06T10:49:42.907Z,83175.53
2023-03-06T10:52:45.249Z,83171.59
2023-03-06T10:55:59.678Z,83189.81
2023-03-06T10:59:13.652Z,83157.41
2023-03-06T11:02:29.698Z,83153.47
2023-03-06T11:05:32.186Z,83152.66
2023-03-06T11:08:36.186Z,83124.22
2023-03-06T11:11:38.729Z,83130.50
2023-03-06T11:14:41.515Z,83112.34
2023-03-06T11:17:58.044Z,83121.88
2023-03-06T11:21:03.915Z,83111.59
2023-03-06T11:24:15.840Z,83116.31
2023-03-06T11:27:34.810Z,83102.13
2023-03-06T11:30:46.958Z,83103.72
2023-03-06T11:34:07.680Z,83086.28
2023-03-06T11:37:32.180Z,83083.91
2023-03-06T11:40:42.106Z,83060.97
2023-03-06T11:44:01.135Z,83057.06
2023-03-06T11:47:33.659Z,83049.94
2023-03-06T11:50:55.386Z,83054.72
2023-03-06T11:54:00.630Z,83053.91
2023-03-06T11:57:12.500Z,83057.87
2023-03-06T12:00:26.993Z,83033.34
2023-03-06T12:03:55.465Z,83034.16
2023-03-06T12:07:07.823Z,83030.22
2023-03-06T12:10:33.680Z,83019.16
2023-03-06T12:13:58.640Z,83017.56
2023-03-06T12:17:09.718Z,83012.81
2023-03-06T12:20:27.813Z,83000.94
2023-03-06T12:23:45.855Z,83004.16
2023-03-06T12:27:26.660Z,83000.97
2023-03-06T12:30:50.605Z,83004.09
2023-03-06T12:34:41.158Z,82994.63
2023-03-06T12:38:02.658Z,82985.12
2023-03-06T12:41:41.142Z,82966.13
2023-03-06T12:45:20.260Z,82961.38
2023-03-06T12:48:27.617Z,82961.41
2023-03-06T12:51:32.494Z,82971.69
2023-03-06T12:54:41.192Z,83004.91
2023-03-06T12:57:44.206Z,82996.22
2023-03-06T13:01:24.207Z,82991.47
2023-03-06T13:05:05.148Z,82996.22
2023-03-06T13:08:40.091Z,82996.22
2023-03-06T13:12:24.437Z,82995.47
2023-03-06T13:16:04.355Z,82994.66
2023-03-06T13:19:19.122Z,82991.50
2023-03-06T13:22:30.620Z,82994.69
2023-03-06T13:25:35.339Z,83008.91
2023-03-06T13:28:45.406Z,83011.28
2023-03-06T13:31:54.056Z,83015.25
2023-03-06T13:34:56.795Z,82993.09
2023-03-06T13:38:00.500Z,82991.56
2023-03-06T13:41:25.085Z,82995.50
2023-03-06T13:44:28.284Z,82994.72
2023-03-06T13:48:02.478Z,82978.91
2023-03-06T13:51:27.992Z,82978.09
2023-03-06T13:54:56.516Z,82974.19
2023-03-06T13:58:18.974Z,82997.88
2023-03-06T14:01:52.673Z,82978.16
2023-03-06T14:04:58.855Z,82961.50
2023-03-06T14:08:10.782Z,82955.16
2023-03-06T14:11:21.693Z,82964.66
2023-03-06T14:14:34.515Z,82965.50
2023-03-06T14:17:39.193Z,82950.44
2023-03-06T14:20:50.380Z,82955.97
2023-03-06T14:24:01.546Z,82967.84
2023-03-06T14:27:04.718Z,82971.03
2023-03-06T14:30:11.518Z,82977.34
2023-03-06T14:33:21.758Z,82989.19
2023-03-06T14:36:32.178Z,82987.63
2023-03-06T14:39:39.467Z,82975.78
2023-03-06T14:42:42.126Z,82986.84
2023-03-06T14:46:03.398Z,82990.00
2023-03-06T14:49:07.460Z,82991.59
2023-03-06T14:52:19.534Z,83004.25
2023-03-06T14:55:25.403Z,82994.78
2023-03-06T14:58:30.827Z,82984.47
2023-03-06T15:01:37.079Z,82985.31
2023-03-06T15:04:48.047Z,82998.72
2023-03-06T15:07:53.585Z,82999.53
2023-03-06T15:11:04.518Z,82999.53
2023-03-06T15:14:21.372Z,82990.06
2023-03-06T15:17:45.081Z,82985.31
2023-03-06T15:21:20.740Z,82996.37
2023-03-06T15:24:35.854Z,82997.97
2023-03-06T15:27:38.692Z,82988.50
2023-03-06T15:30:41.206Z,82990.88
2023-03-06T15:33:44.310Z,82994.00
2023-03-06T15:36:49.116Z,83004.31
2023-03-06T15:40:09.519Z,83009.03
2023-03-06T15:43:12.049Z,83010.63
2023-03-06T15:46:14.922Z,83000.34
2023-03-06T15:49:19.403Z,83013.78
2023-03-06T15:52:23.320Z,83015.41
2023-03-06T15:55:26.315Z,83034.34
2023-03-06T15:58:33.210Z,83024.88
2023-03-06T16:01:37.353Z,83032.75
2023-03-06T16:04:40.466Z,83043.81
2023-03-06T16:07:42.930Z,83035.91
2023-03-06T16:13:24.286Z,83032.78
2023-03-06T16:16:37.836Z,83050.16
2023-03-06T16:19:41.510Z,83046.97
2023-03-06T16:22:46.109Z,83062.00
2023-03-06T16:25:49.580Z,83067.53
2023-03-06T16:28:52.292Z,83075.44
2023-03-06T16:31:56.773Z,83083.38
2023-03-06T16:34:59.618Z,83095.97
2023-03-06T16:38:01.998Z,83110.22
2023-03-06T16:41:04.893Z,83102.34
2023-03-06T16:44:10.722Z,83110.25
2023-03-06T16:47:13.601Z,83107.03
2023-03-06T16:50:26.182Z,83104.72
2023-03-06T16:53:28.850Z,83091.25
2023-03-06T16:56:31.391Z,83096.75
2023-03-06T16:59:34.132Z,83101.50
2023-03-06T17:02:36.720Z,83091.25
2023-03-06T17:05:41.342Z,83092.81
2023-03-06T17:08:46.326Z,83084.94
2023-03-06T17:11:49.048Z,83094.41
2023-03-06T17:14:52.563Z,83102.31
2023-03-06T17:17:58.134Z,83108.63
2023-03-06T17:21:01.081Z,83118.09
2023-03-06T17:24:04.178Z,83110.22
2023-03-06T17:27:06.529Z,83103.91
2023-03-06T17:30:10.116Z,83105.47
2023-03-06T17:33:12.559Z,83103.87
2023-03-06T17:36:16.441Z,83113.34
2023-03-06T17:39:20.795Z,83111.00
2023-03-06T17:42:23.540Z,83102.31
2023-03-06T17:45:25.901Z,83115.78
2023-03-06T17:48:28.648Z,83116.53
2023-03-06T17:51:31.124Z,83118.13
2023-03-06T17:54:33.824Z,83122.06
2023-03-06T17:57:36.272Z,83117.31
2023-03-06T18:00:39.851Z,83127.59
2023-03-06T18:03:48.099Z,83123.66
2023-03-06T18:06:50.560Z,83126.00
2023-03-06T18:09:53.263Z,83127.59
2023-03-06T18:12:56.719Z,83126.03
2023-03-06T18:16:01.570Z,83129.19
2023-03-06T18:19:03.995Z,83129.19
2023-03-06T18:22:06.748Z,83126.81
2023-03-06T18:25:09.558Z,83121.28
2023-03-06T18:28:12.952Z,83124.44
2023-03-06T18:31:17.669Z,83127.63
2023-03-06T18:34:20.466Z,83121.28
2023-03-06T18:37:23.860Z,83116.56
2023-03-06T18:40:26.615Z,83135.53
2023-03-06T18:43:29.218Z,83132.34
2023-03-06T18:46:37.667Z,83132.31
2023-03-06T18:49:41.243Z,83130.78
2023-03-06T18:52:45.358Z,83123.66
2023-03-06T18:55:53.613Z,83122.84
2023-03-06T18:58:56.969Z,83124.44
2023-03-06T19:01:59.561Z,83124.44
2023-03-06T19:05:05.473Z,83118.13
2023-03-06T19:08:09.231Z,83119.69
2023-03-06T19:11:14.781Z,83137.06
2023-03-06T19:14:17.353Z,83146.59
2023-03-06T19:17:20.061Z,83126.03
2023-03-06T19:20:24.337Z,83138.72
2023-03-06T19:23:27.181Z,83156.06
2023-03-06T19:26:29.721Z,83144.97
2023-03-06T19:29:32.579Z,83148.94
2023-03-06T19:32:35.041Z,83155.25
2023-03-06T19:35:37.956Z,83144.97
2023-03-06T19:38:41.100Z,83141.81
2023-03-06T19:41:43.800Z,83137.88
2023-03-06T19:44:46.227Z,83134.72
2023-03-06T19:47:50.252Z,83137.12
2023-03-06T19:50:52.706Z,83137.06
2023-03-06T19:53:56.293Z,83143.41
2023-03-06T19:56:59.565Z,83137.06
2023-03-06T20:00:02.442Z,83129.19
2023-03-06T20:03:14.839Z,83140.25
2023-03-06T20:06:19.573Z,83143.41
2023-03-06T20:09:22.211Z,83145.00
2023-03-06T20:12:24.909Z,83145.03
2023-03-06T20:15:28.141Z,83150.53
2023-03-06T20:18:30.823Z,83156.06
2023-03-06T20:21:37.565Z,83151.34
2023-03-06T20:24:40.448Z,83138.72
2023-03-06T20:27:42.927Z,83133.94
2023-03-06T20:30:45.925Z,83157.63
2023-03-06T20:33:50.603Z,83146.56
2023-03-06T20:36:53.662Z,83152.91
2023-03-06T20:39:56.188Z,83152.91
2023-03-06T20:42:59.142Z,83156.84
2023-03-06T20:46:03.238Z,83163.97
2023-03-06T20:49:07.774Z,83165.53
2023-03-06T20:52:10.323Z,83173.47
2023-03-06T20:55:13.213Z,83171.06
2023-03-06T20:58:15.503Z,83172.63
2023-03-06T21:01:26.673Z,83165.53
2023-03-06T21:04:29.053Z,83159.25
2023-03-06T21:07:31.808Z,83154.47
2023-03-06T21:10:34.236Z,83149.72
2023-03-06T21:13:37.335Z,83149.75
2023-03-06T21:16:40.381Z,83159.22
2023-03-06T21:19:43.148Z,83163.97
2023-03-06T21:22:45.752Z,83158.47
2023-03-06T21:25:49.879Z,83160.78
2023-03-06T21:28:52.629Z,83159.22
2023-03-06T21:31:55.340Z,83156.06
2023-03-06T21:34:57.690Z,83160.78
2023-03-06T21:38:00.353Z,83160.81
2023-03-06T21:41:16.503Z,83167.91
2023-03-06T21:44:19.715Z,83156.03
2023-03-06T21:47:22.091Z,83160.81
2023-03-06T21:50:24.880Z,83162.38
2023-03-06T21:53:27.331Z,83167.16
2023-03-06T21:56:30.074Z,83159.22
2023-03-06T21:59:32.539Z,83160.78
2023-03-06T22:02:35.665Z,83163.97
2023-03-06T22:05:38.371Z,83167.91
2023-03-06T22:08:41.344Z,83170.25
2023-03-06T22:11:44.140Z,83168.72
2023-03-06T22:14:46.834Z,83170.28
2023-03-06T22:17:49.650Z,83165.53
2023-03-06T22:20:52.535Z,83162.38
2023-03-06T22:23:59.030Z,83162.38
2023-03-06T22:27:01.454Z,83164.00
2023-03-06T22:30:05.330Z,83163.16
2023-03-06T22:33:07.698Z,83172.63
2023-03-06T22:36:13.143Z,83164.00
2023-03-06T22:39:16.570Z,83169.47
2023-03-06T22:42:19.269Z,83172.63
2023-03-06T22:45:21.791Z,83178.94
2023-03-06T22:48:24.510Z,83179.75
2023-03-06T22:51:28.306Z,83189.25
2023-03-06T22:54:31.017Z,83190.00
2023-03-06T22:57:33.482Z,83188.44
2023-03-06T23:00:36.474Z,83185.28
2023-03-06T23:03:40.877Z,83171.84
2023-03-06T23:06:44.169Z,83170.28
2023-03-06T23:09:47.187Z,83162.38
2023-03-06T23:13:09.080Z,83160.78
2023-03-06T23:16:30.167Z,83159.22
2023-03-06T23:19:51.094Z,83161.59
2023-03-06T23:23:12.003Z,83167.94
2023-03-06T23:26:19.339Z,83173.44
2023-03-06T23:29:22.447Z,83181.31
2023-03-06T23:32:25.013Z,83181.31
2023-03-06T23:35:27.731Z,83179.75
2023-03-06T23:38:30.497Z,83180.53
2023-03-06T23:41:33.278Z,83182.91
2023-03-06T23:44:35.745Z,83186.87
2023-03-06T23:47:38.486Z,83187.63
2023-03-06T23:50:41.237Z,83193.97
2023-03-06T23:53:45.591Z,83197.13
2023-03-06T23:56:47.932Z,83205.00
2023-03-06T23:59:50.703Z,83210.56
